sensor_id;sensor_type;location;lat;lon;timestamp;pressure;altitude;pressure_sealevel;temperature;humidity
49877;BME280;35771;48.978;9.294;2022-09-09T00:00:25;98603.38;;;13.54;100.00
49877;BME280;35771;48.978;9.294;2022-09-09T00:03:02;98611.56;;;13.54;100.00
49877;BME280;35771;48.978;9.294;2022-09-09T00:05:40;98605.09;;;13.49;100.00
49877;BME280;35771;48.978;9.294;2022-09-09T00:08:17;98611.34;;;13.56;100.00
49877;BME280;35771;48.978;9.294;2022-09-09T00:10:48;98615.78;;;13.50;100.00
49877;BME280;35771;48.978;9.294;2022-09-09T00:13:20;98617.09;;;13.41;100.00
49877;BME280;35771;48.978;9.294;2022-09-09T00:15:55;98609.56;;;13.36;100.00
49877;BME280;35771;48.978;9.294;2022-09-09T00:18:30;98611.84;;;13.46;100.00
49877;BME280;35771;48.978;9.294;2022-09-09T00:21:05;98612.06;;;13.44;100.00
49877;BME280;35771;48.978;9.294;2022-09-09T00:23:35;98630.09;;;13.52;100.00
49877;BME280;35771;48.978;9.294;2022-09-09T00:26:09;98625.00;;;13.56;100.00
49877;BME280;35771;48.978;9.294;2022-09-09T00:28:41;98604.66;;;13.52;100.00
49877;BME280;35771;48.978;9.294;2022-09-09T00:31:14;98599.97;;;13.66;100.00
49877;BME280;35771;48.978;9.294;2022-09-09T00:33:46;98591.16;;;13.63;100.00
49877;BME280;35771;48.978;9.294;2022-09-09T00:36:18;98611.56;;;13.61;100.00
49877;BME280;35771;48.978;9.294;2022-09-09T00:38:49;98602.94;;;13.57;100.00
49877;BME280;35771;48.978;9.294;2022-09-09T00:41:21;98608.81;;;13.61;100.00
49877;BME280;35771;48.978;9.294;2022-09-09T00:43:56;98603.38;;;13.54;100.00
49877;BME280;35771;48.978;9.294;2022-09-09T00:46:40;98597.47;;;13.64;100.00
49877;BME280;35771;48.978;9.294;2022-09-09T00:49:18;98609.38;;;13.70;100.00
49877;BME280;35771;48.978;9.294;2022-09-09T00:51:56;98603.16;;;13.62;100.00
49877;BME280;35771;48.978;9.294;2022-09-09T00:54:35;98598.94;;;13.60;100.00
49877;BME280;35771;48.978;9.294;2022-09-09T00:57:13;98607.97;;;13.60;100.00
49877;BME280;35771;48.978;9.294;2022-09-09T00:59:46;98605.44;;;13.66;100.00
49877;BME280;35771;48.978;9.294;2022-09-09T01:02:21;98610.25;;;13.63;100.00
49877;BME280;35771;48.978;9.294;2022-09-09T01:04:53;98618.44;;;13.70;100.00
49877;BME280;35771;48.978;9.294;2022-09-09T01:07:20;98625.31;;;13.79;100.00
49877;BME280;35771;48.978;9.294;2022-09-09T01:09:56;98623.69;;;13.72;100.00
49877;BME280;35771;48.978;9.294;2022-09-09T01:12:33;98620.75;;;13.67;100.00
49877;BME280;35771;48.978;9.294;2022-09-09T01:15:09;98606.88;;;13.68;100.00
49877;BME280;35771;48.978;9.294;2022-09-09T01:17:46;98617.34;;;13.71;100.00
49877;BME280;35771;48.978;9.294;2022-09-09T01:20:21;98615.06;;;13.68;100.00
49877;BME280;35771;48.978;9.294;2022-09-09T01:23:02;98610.19;;;13.77;100.00
49877;BME280;35771;48.978;9.294;2022-09-09T01:26:04;98611.88;;;13.78;100.00
49877;BME280;35771;48.978;9.294;2022-09-09T01:28:34;98611.81;;;13.85;100.00
49877;BME280;35771;48.978;9.294;2022-09-09T01:31:03;98612.03;;;13.90;100.00
49877;BME280;35771;48.978;9.294;2022-09-09T01:33:30;98612.19;;;13.95;100.00
49877;BME280;35771;48.978;9.294;2022-09-09T01:35:59;98620.56;;;14.00;100.00
49877;BME280;35771;48.978;9.294;2022-09-09T01:38:29;98611.34;;;13.94;100.00
49877;BME280;35771;48.978;9.294;2022-09-09T01:41:02;98612.38;;;14.00;100.00
49877;BME280;35771;48.978;9.294;2022-09-09T01:43:29;98609.66;;;13.93;100.00
49877;BME280;35771;48.978;9.294;2022-09-09T01:45:59;98614.66;;;14.03;100.00
49877;BME280;35771;48.978;9.294;2022-09-09T01:48:27;98629.31;;;14.09;100.00
49877;BME280;35771;48.978;9.294;2022-09-09T01:50:54;98628.94;;;14.05;100.00
49877;BME280;35771;48.978;9.294;2022-09-09T01:53:22;98622.41;;;14.06;100.00
49877;BME280;35771;48.978;9.294;2022-09-09T01:55:57;98613.88;;;13.96;100.00
49877;BME280;35771;48.978;9.294;2022-09-09T01:58:32;98615.34;;;13.98;100.00
49877;BME280;35771;48.978;9.294;2022-09-09T02:01:06;98630.47;;;13.94;100.00
49877;BME280;35771;48.978;9.294;2022-09-09T02:03:35;98631.75;;;13.92;100.00
49877;BME280;35771;48.978;9.294;2022-09-09T02:06:08;98623.94;;;13.95;100.00
49877;BME280;35771;48.978;9.294;2022-09-09T02:08:43;98621.25;;;13.89;100.00
49877;BME280;35771;48.978;9.294;2022-09-09T02:11:13;98614.91;;;13.95;100.00
49877;BME280;35771;48.978;9.294;2022-09-09T02:13:43;98624.81;;;13.89;100.00
49877;BME280;35771;48.978;9.294;2022-09-09T02:16:13;98613.00;;;13.95;100.00
49877;BME280;35771;48.978;9.294;2022-09-09T02:18:46;98611.28;;;14.01;100.00
49877;BME280;35771;48.978;9.294;2022-09-09T02:21:14;98611.72;;;14.05;100.00
49877;BME280;35771;48.978;9.294;2022-09-09T02:23:43;98603.31;;;13.99;100.00
49877;BME280;35771;48.978;9.294;2022-09-09T02:26:13;98582.41;;;13.87;100.00
49877;BME280;35771;48.978;9.294;2022-09-09T02:28:47;98591.47;;;13.80;100.00
49877;BME280;35771;48.978;9.294;2022-09-09T02:31:15;98603.19;;;13.88;100.00
49877;BME280;35771;48.978;9.294;2022-09-09T02:33:46;98621.94;;;13.77;100.00
49877;BME280;35771;48.978;9.294;2022-09-09T02:36:15;98613.38;;;13.74;100.00
49877;BME280;35771;48.978;9.294;2022-09-09T02:38:46;98622.16;;;13.76;100.00
49877;BME280;35771;48.978;9.294;2022-09-09T02:41:16;98614.25;;;13.68;100.00
49877;BME280;35771;48.978;9.294;2022-09-09T02:43:43;98613.03;;;13.57;100.00
49877;BME280;35771;48.978;9.294;2022-09-09T02:46:23;98638.06;;;13.47;100.00
49877;BME280;35771;48.978;9.294;2022-09-09T02:48:58;98632.59;;;13.47;100.00
49877;BME280;35771;48.978;9.294;2022-09-09T02:51:32;98603.28;;;13.36;100.00
49877;BME280;35771;48.978;9.294;2022-09-09T02:54:10;98612.72;;;13.26;100.00
49877;BME280;35771;48.978;9.294;2022-09-09T02:56:43;98593.25;;;13.09;100.00
49877;BME280;35771;48.978;9.294;2022-09-09T02:59:12;98622.66;;;13.07;100.00
49877;BME280;35771;48.978;9.294;2022-09-09T03:01:40;98609.66;;;13.03;100.00
49877;BME280;35771;48.978;9.294;2022-09-09T03:04:07;98611.91;;;13.13;100.00
49877;BME280;35771;48.978;9.294;2022-09-09T03:06:34;98585.53;;;12.93;100.00
49877;BME280;35771;48.978;9.294;2022-09-09T03:09:01;98607.31;;;13.06;100.00
49877;BME280;35771;48.978;9.294;2022-09-09T03:11:28;98586.13;;;13.08;100.00
49877;BME280;35771;48.978;9.294;2022-09-09T03:13:55;98598.69;;;13.09;100.00
49877;BME280;35771;48.978;9.294;2022-09-09T03:16:22;98582.16;;;13.04;100.00
49877;BME280;35771;48.978;9.294;2022-09-09T03:18:50;98591.13;;;13.18;100.00
49877;BME280;35771;48.978;9.294;2022-09-09T03:21:17;98576.91;;;12.96;100.00
49877;BME280;35771;48.978;9.294;2022-09-09T03:23:44;98583.88;;;12.92;100.00
49877;BME280;35771;48.978;9.294;2022-09-09T03:26:11;98576.56;;;12.86;100.00
49877;BME280;35771;48.978;9.294;2022-09-09T03:28:40;98585.09;;;12.96;100.00
49877;BME280;35771;48.978;9.294;2022-09-09T03:31:07;98593.28;;;13.03;100.00
49877;BME280;35771;48.978;9.294;2022-09-09T03:33:35;98587.22;;;13.01;100.00
49877;BME280;35771;48.978;9.294;2022-09-09T03:36:04;98595.22;;;12.82;100.00
49877;BME280;35771;48.978;9.294;2022-09-09T03:38:30;98596.91;;;12.83;100.00
49877;BME280;35771;48.978;9.294;2022-09-09T03:40:57;98588.75;;;12.63;100.00
49877;BME280;35771;48.978;9.294;2022-09-09T03:43:24;98613.94;;;12.65;100.00
49877;BME280;35771;48.978;9.294;2022-09-09T03:45:51;98603.03;;;12.65;100.00
49877;BME280;35771;48.978;9.294;2022-09-09T03:48:18;98600.91;;;12.67;100.00
49877;BME280;35771;48.978;9.294;2022-09-09T03:50:45;98619.16;;;12.73;100.00
49877;BME280;35771;48.978;9.294;2022-09-09T03:53:15;98613.50;;;12.68;100.00
49877;BME280;35771;48.978;9.294;2022-09-09T03:55:44;98604.69;;;12.66;100.00
49877;BME280;35771;48.978;9.294;2022-09-09T03:58:11;98597.59;;;12.59;100.00
49877;BME280;35771;48.978;9.294;2022-09-09T04:00:38;98603.03;;;12.65;100.00
49877;BME280;35771;48.978;9.294;2022-09-09T04:03:07;98604.50;;;12.68;100.00
49877;BME280;35771;48.978;9.294;2022-09-09T04:05:34;98594.66;;;12.60;100.00
49877;BME280;35771;48.978;9.294;2022-09-09T04:08:05;98599.84;;;12.75;100.00
49877;BME280;35771;48.978;9.294;2022-09-09T04:10:33;98600.06;;;12.73;100.00
49877;BME280;35771;48.978;9.294;2022-09-09T04:13:01;98600.66;;;12.82;100.00
49877;BME280;35771;48.978;9.294;2022-09-09T04:15:27;98601.28;;;12.91;100.00
49877;BME280;35771;48.978;9.294;2022-09-09T04:17:54;98603.41;;;12.89;100.00
49877;BME280;35771;48.978;9.294;2022-09-09T04:20:21;98595.00;;;12.84;100.00
49877;BME280;35771;48.978;9.294;2022-09-09T04:22:48;98613.44;;;12.95;100.00
49877;BME280;35771;48.978;9.294;2022-09-09T04:25:15;98605.91;;;12.90;100.00
49877;BME280;35771;48.978;9.294;2022-09-09T04:27:43;98606.31;;;12.94;100.00
49877;BME280;35771;48.978;9.294;2022-09-09T04:30:10;98619.34;;;12.92;100.00
49877;BME280;35771;48.978;9.294;2022-09-09T04:32:37;98617.22;;;13.01;100.00
49877;BME280;35771;48.978;9.294;2022-09-09T04:35:04;98606.75;;;12.98;100.00
49877;BME280;35771;48.978;9.294;2022-09-09T04:37:31;98617.03;;;12.89;100.00
49877;BME280;35771;48.978;9.294;2022-09-09T04:39:57;98615.13;;;12.89;100.00
49877;BME280;35771;48.978;9.294;2022-09-09T04:42:27;98613.03;;;12.91;100.00
49877;BME280;35771;48.978;9.294;2022-09-09T04:44:55;98608.84;;;12.89;100.00
49877;BME280;35771;48.978;9.294;2022-09-09T04:47:22;98636.75;;;12.91;100.00
49877;BME280;35771;48.978;9.294;2022-09-09T04:49:48;98634.44;;;12.88;100.00
49877;BME280;35771;48.978;9.294;2022-09-09T04:52:15;98634.22;;;12.96;100.00
49877;BME280;35771;48.978;9.294;2022-09-09T04:54:42;98632.53;;;12.88;100.00
49877;BME280;35771;48.978;9.294;2022-09-09T04:57:10;98648.91;;;13.02;100.00
49877;BME280;35771;48.978;9.294;2022-09-09T04:59:38;98648.69;;;13.03;100.00
49877;BME280;35771;48.978;9.294;2022-09-09T05:02:06;98628.94;;;13.08;100.00
49877;BME280;35771;48.978;9.294;2022-09-09T05:04:33;98636.94;;;13.03;100.00
49877;BME280;35771;48.978;9.294;2022-09-09T05:06:59;98640.06;;;13.06;100.00
49877;BME280;35771;48.978;9.294;2022-09-09T05:09:26;98637.75;;;13.10;100.00
49877;BME280;35771;48.978;9.294;2022-09-09T05:11:52;98638.38;;;13.12;100.00
49877;BME280;35771;48.978;9.294;2022-09-09T05:14:20;98638.78;;;13.16;100.00
49877;BME280;35771;48.978;9.294;2022-09-09T05:16:46;98654.94;;;13.24;100.00
49877;BME280;35771;48.978;9.294;2022-09-09T05:19:16;98657.88;;;13.22;100.00
49877;BME280;35771;48.978;9.294;2022-09-09T05:21:44;98645.53;;;13.06;100.00
49877;BME280;35771;48.978;9.294;2022-09-09T05:24:11;98655.38;;;13.21;100.00
49877;BME280;35771;48.978;9.294;2022-09-09T05:26:37;98644.44;;;13.21;100.00
49877;BME280;35771;48.978;9.294;2022-09-09T05:29:04;98660.56;;;13.29;100.00
49877;BME280;35771;48.978;9.294;2022-09-09T05:31:31;98668.53;;;13.31;100.00
49877;BME280;35771;48.978;9.294;2022-09-09T05:33:58;98666.66;;;13.38;100.00
49877;BME280;35771;48.978;9.294;2022-09-09T05:36:26;98667.72;;;13.37;100.00
49877;BME280;35771;48.978;9.294;2022-09-09T05:38:53;98668.13;;;13.40;100.00
49877;BME280;35771;48.978;9.294;2022-09-09T05:41:20;98667.94;;;13.42;100.00
49877;BME280;35771;48.978;9.294;2022-09-09T05:43:48;98663.50;;;13.41;100.00
49877;BME280;35771;48.978;9.294;2022-09-09T05:46:16;98660.50;;;13.56;100.00
49877;BME280;35771;48.978;9.294;2022-09-09T05:48:45;98676.19;;;13.74;100.00
49877;BME280;35771;48.978;9.294;2022-09-09T05:51:14;98665.88;;;13.76;100.00
49877;BME280;35771;48.978;9.294;2022-09-09T05:53:44;98671.91;;;13.91;100.00
49877;BME280;35771;48.978;9.294;2022-09-09T05:56:12;98654.66;;;13.91;100.00
49877;BME280;35771;48.978;9.294;2022-09-09T05:58:40;98671.19;;;14.09;100.00
49877;BME280;35771;48.978;9.294;2022-09-09T06:01:11;98651.59;;;14.12;100.00
49877;BME280;35771;48.978;9.294;2022-09-09T06:03:40;98657.69;;;14.14;100.00
49877;BME280;35771;48.978;9.294;2022-09-09T06:06:10;98669.66;;;14.45;100.00
49877;BME280;35771;48.978;9.294;2022-09-09T06:08:37;98669.38;;;14.54;100.00
49877;BME280;35771;48.978;9.294;2022-09-09T06:11:08;98662.19;;;14.59;100.00
49877;BME280;35771;48.978;9.294;2022-09-09T06:13:34;98668.56;;;14.78;100.00
49877;BME280;35771;48.978;9.294;2022-09-09T06:16:02;98670.19;;;14.86;100.00
49877;BME280;35771;48.978;9.294;2022-09-09T06:18:29;98670.28;;;14.98;100.00
49877;BME280;35771;48.978;9.294;2022-09-09T06:20:57;98671.50;;;15.02;100.00
49877;BME280;35771;48.978;9.294;2022-09-09T06:23:24;98665.53;;;15.12;100.00
49877;BME280;35771;48.978;9.294;2022-09-09T06:25:51;98648.91;;;15.07;100.00
49877;BME280;35771;48.978;9.294;2022-09-09T06:28:19;98648.69;;;15.08;100.00
49877;BME280;35771;48.978;9.294;2022-09-09T06:30:46;98656.94;;;15.27;100.00
49877;BME280;35771;48.978;9.294;2022-09-09T06:33:13;98651.19;;;15.65;95.66
49877;BME280;35771;48.978;9.294;2022-09-09T06:35:40;98658.00;;;15.63;95.37
49877;BME280;35771;48.978;9.294;2022-09-09T06:38:06;98655.28;;;15.74;96.64
49877;BME280;35771;48.978;9.294;2022-09-09T06:40:33;98672.47;;;16.00;94.97
49877;BME280;35771;48.978;9.294;2022-09-09T06:43:00;98672.44;;;15.88;95.95
49877;BME280;35771;48.978;9.294;2022-09-09T06:45:28;98677.75;;;16.02;98.03
49877;BME280;35771;48.978;9.294;2022-09-09T06:47:56;98676.81;;;16.08;98.23
49877;BME280;35771;48.978;9.294;2022-09-09T06:50:22;98673.09;;;16.02;96.29
49877;BME280;35771;48.978;9.294;2022-09-09T06:52:49;98668.72;;;16.13;97.81
49877;BME280;35771;48.978;9.294;2022-09-09T06:55:16;98668.59;;;16.20;96.84
49877;BME280;35771;48.978;9.294;2022-09-09T06:57:43;98663.59;;;16.17;95.61
49877;BME280;35771;48.978;9.294;2022-09-09T07:00:11;98689.16;;;16.29;93.39
49877;BME280;35771;48.978;9.294;2022-09-09T07:02:40;98688.69;;;16.32;94.20
49877;BME280;35771;48.978;9.294;2022-09-09T07:05:07;98694.66;;;16.41;92.97
49877;BME280;35771;48.978;9.294;2022-09-09T07:07:34;98693.28;;;16.50;94.53
49877;BME280;35771;48.978;9.294;2022-09-09T07:10:02;98669.78;;;16.66;93.72
49877;BME280;35771;48.978;9.294;2022-09-09T07:12:29;98680.69;;;16.96;93.29
49877;BME280;35771;48.978;9.294;2022-09-09T07:14:56;98676.28;;;16.95;87.93
49877;BME280;35771;48.978;9.294;2022-09-09T07:17:22;98676.41;;;17.01;88.68
49877;BME280;35771;48.978;9.294;2022-09-09T07:19:50;98681.56;;;16.97;87.80
49877;BME280;35771;48.978;9.294;2022-09-09T07:22:17;98673.56;;;17.07;88.82
49877;BME280;35771;48.978;9.294;2022-09-09T07:24:45;98685.59;;;17.18;84.57
49877;BME280;35771;48.978;9.294;2022-09-09T07:27:12;98673.41;;;17.14;83.95
49877;BME280;35771;48.978;9.294;2022-09-09T07:29:38;98687.97;;;17.26;86.99
49877;BME280;35771;48.978;9.294;2022-09-09T07:32:05;98676.16;;;17.38;85.72
49877;BME280;35771;48.978;9.294;2022-09-09T07:34:32;98688.53;;;17.52;84.64
49877;BME280;35771;48.978;9.294;2022-09-09T07:37:00;98692.72;;;17.55;82.58
49877;BME280;35771;48.978;9.294;2022-09-09T07:39:26;98687.56;;;17.58;81.90
49877;BME280;35771;48.978;9.294;2022-09-09T07:41:53;98694.16;;;17.57;80.27
49877;BME280;35771;48.978;9.294;2022-09-09T07:44:22;98693.97;;;17.76;80.56
49877;BME280;35771;48.978;9.294;2022-09-09T07:46:50;98694.13;;;17.69;78.98
49877;BME280;35771;48.978;9.294;2022-09-09T07:49:17;98682.25;;;17.92;79.98
49877;BME280;35771;48.978;9.294;2022-09-09T07:51:45;98690.16;;;18.17;79.26
49877;BME280;35771;48.978;9.294;2022-09-09T07:54:16;98685.09;;;17.97;80.31
49877;BME280;35771;48.978;9.294;2022-09-09T07:56:45;98688.00;;;17.91;80.03
49877;BME280;35771;48.978;9.294;2022-09-09T07:59:12;98693.94;;;17.99;79.18
49877;BME280;35771;48.978;9.294;2022-09-09T08:01:40;98678.69;;;17.80;78.08
49877;BME280;35771;48.978;9.294;2022-09-09T08:04:09;98675.88;;;17.51;77.61
49877;BME280;35771;48.978;9.294;2022-09-09T08:06:42;98697.25;;;17.61;78.28
49877;BME280;35771;48.978;9.294;2022-09-09T08:09:10;98684.09;;;17.63;80.40
49877;BME280;35771;48.978;9.294;2022-09-09T08:11:39;98690.50;;;17.80;80.80
49877;BME280;35771;48.978;9.294;2022-09-09T08:14:06;98700.97;;;18.07;77.40
49877;BME280;35771;48.978;9.294;2022-09-09T08:16:36;98702.31;;;18.21;76.32
49877;BME280;35771;48.978;9.294;2022-09-09T08:19:04;98698.88;;;18.26;75.05
49877;BME280;35771;48.978;9.294;2022-09-09T08:21:31;98695.13;;;18.32;74.43
49877;BME280;35771;48.978;9.294;2022-09-09T08:24:00;98696.72;;;18.62;73.58
49877;BME280;35771;48.978;9.294;2022-09-09T08:26:29;98696.06;;;18.72;71.90
49877;BME280;35771;48.978;9.294;2022-09-09T08:28:58;98697.06;;;18.83;72.22
49877;BME280;35771;48.978;9.294;2022-09-09T08:31:27;98699.00;;;18.82;76.61
49877;BME280;35771;48.978;9.294;2022-09-09T08:33:54;98692.78;;;18.87;73.53
49877;BME280;35771;48.978;9.294;2022-09-09T08:36:23;98685.34;;;18.87;75.45
49877;BME280;35771;48.978;9.294;2022-09-09T08:38:52;98704.78;;;18.98;72.41
49877;BME280;35771;48.978;9.294;2022-09-09T08:41:43;98689.69;;;19.00;73.48
49877;BME280;35771;48.978;9.294;2022-09-09T08:44:19;98689.47;;;19.24;71.31
49877;BME280;35771;48.978;9.294;2022-09-09T08:46:56;98698.50;;;19.19;70.06
49877;BME280;35771;48.978;9.294;2022-09-09T08:49:44;98681.28;;;19.29;72.52
49877;BME280;35771;48.978;9.294;2022-09-09T08:52:18;98700.81;;;19.67;72.07
49877;BME280;35771;48.978;9.294;2022-09-09T08:54:46;98694.44;;;19.83;73.43
49877;BME280;35771;48.978;9.294;2022-09-09T08:57:18;98679.47;;;20.01;72.22
49877;BME280;35771;48.978;9.294;2022-09-09T08:59:48;98668.88;;;19.93;68.33
49877;BME280;35771;48.978;9.294;2022-09-09T09:02:20;98667.44;;;19.85;67.21
49877;BME280;35771;48.978;9.294;2022-09-09T09:05:09;98678.03;;;19.93;66.57
49877;BME280;35771;48.978;9.294;2022-09-09T09:07:50;98671.38;;;19.94;67.74
49877;BME280;35771;48.978;9.294;2022-09-09T09:10:33;98689.66;;;20.01;65.38
49877;BME280;35771;48.978;9.294;2022-09-09T09:13:01;98697.25;;;20.10;64.54
49877;BME280;35771;48.978;9.294;2022-09-09T09:15:36;98690.03;;;20.09;65.00
49877;BME280;35771;48.978;9.294;2022-09-09T09:18:04;98695.63;;;20.14;62.31
49877;BME280;35771;48.978;9.294;2022-09-09T09:20:35;98679.34;;;20.13;63.00
49877;BME280;35771;48.978;9.294;2022-09-09T09:23:13;98678.56;;;20.18;61.50
49877;BME280;35771;48.978;9.294;2022-09-09T09:25:44;98674.09;;;20.11;63.09
49877;BME280;35771;48.978;9.294;2022-09-09T09:28:14;98680.22;;;20.19;63.89
49877;BME280;35771;48.978;9.294;2022-09-09T09:30:48;98672.81;;;19.97;62.92
49877;BME280;35771;48.978;9.294;2022-09-09T09:33:20;98676.13;;;19.99;65.68
49877;BME280;35771;48.978;9.294;2022-09-09T09:35:49;98667.16;;;19.87;64.46
49877;BME280;35771;48.978;9.294;2022-09-09T09:38:18;98674.16;;;20.22;65.38
49877;BME280;35771;48.978;9.294;2022-09-09T09:40:52;98660.06;;;20.18;62.62
49877;BME280;35771;48.978;9.294;2022-09-09T09:43:23;98655.09;;;19.93;64.12
49877;BME280;35771;48.978;9.294;2022-09-09T09:45:52;98665.28;;;20.14;64.50
49877;BME280;35771;48.978;9.294;2022-09-09T09:48:18;98659.78;;;20.47;63.45
49877;BME280;35771;48.978;9.294;2022-09-09T09:50:50;98657.00;;;20.74;60.41
49877;BME280;35771;48.978;9.294;2022-09-09T09:53:21;98641.03;;;20.76;55.06
49877;BME280;35771;48.978;9.294;2022-09-09T09:55:54;98625.00;;;20.78;54.53
49877;BME280;35771;48.978;9.294;2022-09-09T09:58:21;98641.81;;;21.09;55.31
49877;BME280;35771;48.978;9.294;2022-09-09T10:00:48;98638.09;;;20.88;52.25
49877;BME280;35771;48.978;9.294;2022-09-09T10:03:23;98614.84;;;20.89;52.34
49877;BME280;35771;48.978;9.294;2022-09-09T10:05:51;98613.91;;;21.11;53.86
49877;BME280;35771;48.978;9.294;2022-09-09T10:08:18;98617.50;;;21.16;52.27
49877;BME280;35771;48.978;9.294;2022-09-09T10:11:02;98618.03;;;21.13;50.97
49877;BME280;35771;48.978;9.294;2022-09-09T10:13:38;98628.41;;;21.33;51.50
49877;BME280;35771;48.978;9.294;2022-09-09T10:16:22;98623.75;;;21.49;50.36
49877;BME280;35771;48.978;9.294;2022-09-09T10:19:04;98635.31;;;21.89;50.42
49877;BME280;35771;48.978;9.294;2022-09-09T10:24:36;98642.97;;;21.77;49.79
49877;BME280;35771;48.978;9.294;2022-09-09T10:27:11;98647.19;;;21.95;50.78
49877;BME280;35771;48.978;9.294;2022-09-09T10:30:00;98656.94;;;22.07;50.33
49877;BME280;35771;48.978;9.294;2022-09-09T10:32:38;98640.88;;;21.41;52.77
49877;BME280;35771;48.978;9.294;2022-09-09T10:35:17;98659.75;;;21.07;53.48
49877;BME280;35771;48.978;9.294;2022-09-09T10:38:14;98657.91;;;20.85;54.13
49877;BME280;35771;48.978;9.294;2022-09-09T10:40:44;98658.44;;;20.49;54.06
49877;BME280;35771;48.978;9.294;2022-09-09T10:43:25;98675.03;;;20.55;54.82
49877;BME280;35771;48.978;9.294;2022-09-09T10:46:05;98673.59;;;20.47;56.44
49877;BME280;35771;48.978;9.294;2022-09-09T10:48:47;98668.31;;;20.13;56.99
49877;BME280;35771;48.978;9.294;2022-09-09T10:51:29;98674.28;;;20.32;57.54
49877;BME280;35771;48.978;9.294;2022-09-09T10:54:12;98659.25;;;20.50;57.03
49877;BME280;35771;48.978;9.294;2022-09-09T10:56:50;98672.00;;;20.83;57.19
49877;BME280;35771;48.978;9.294;2022-09-09T10:59:25;98671.16;;;20.78;57.42
49877;BME280;35771;48.978;9.294;2022-09-09T11:01:58;98664.06;;;20.60;58.11
49877;BME280;35771;48.978;9.294;2022-09-09T11:04:31;98657.28;;;20.45;57.31
49877;BME280;35771;48.978;9.294;2022-09-09T11:10:18;98662.59;;;20.79;56.70
49877;BME280;35771;48.978;9.294;2022-09-09T11:12:50;98668.19;;;20.62;55.70
49877;BME280;35771;48.978;9.294;2022-09-09T11:15:22;98669.94;;;20.41;54.60
49877;BME280;35771;48.978;9.294;2022-09-09T11:17:55;98691.06;;;20.25;58.61
49877;BME280;35771;48.978;9.294;2022-09-09T11:20:23;98690.69;;;19.50;74.12
49877;BME280;35771;48.978;9.294;2022-09-09T11:22:55;98682.00;;;19.02;78.23
49877;BME280;35771;48.978;9.294;2022-09-09T11:25:29;98678.06;;;18.98;85.31
49877;BME280;35771;48.978;9.294;2022-09-09T11:28:15;98669.88;;;18.69;88.24
49877;BME280;35771;48.978;9.294;2022-09-09T11:30:58;98664.88;;;18.49;81.64
49877;BME280;35771;48.978;9.294;2022-09-09T11:33:42;98667.28;;;18.63;94.42
49877;BME280;35771;48.978;9.294;2022-09-09T11:36:35;98677.00;;;18.36;88.95
49877;BME280;35771;48.978;9.294;2022-09-09T11:42:20;98709.16;;;17.78;88.80
49877;BME280;35771;48.978;9.294;2022-09-09T11:44:47;98712.66;;;17.62;84.83
49877;BME280;35771;48.978;9.294;2022-09-09T11:47:21;98716.72;;;17.59;90.19
49877;BME280;35771;48.978;9.294;2022-09-09T11:49:50;98711.38;;;17.52;93.50
49877;BME280;35771;48.978;9.294;2022-09-09T11:52:22;98721.66;;;17.45;89.79
49877;BME280;35771;48.978;9.294;2022-09-09T11:54:54;98716.38;;;17.56;94.05
49877;BME280;35771;48.978;9.294;2022-09-09T11:57:26;98715.25;;;17.80;88.67
49877;BME280;35771;48.978;9.294;2022-09-09T11:59:57;98695.75;;;17.82;85.34
49877;BME280;35771;48.978;9.294;2022-09-09T12:02:26;98692.22;;;18.10;86.17
49877;BME280;35771;48.978;9.294;2022-09-09T12:04:59;98692.72;;;18.53;89.65
49877;BME280;35771;48.978;9.294;2022-09-09T12:07:33;98681.56;;;18.60;85.35
49877;BME280;35771;48.978;9.294;2022-09-09T12:10:18;98679.88;;;18.58;75.45
49877;BME280;35771;48.978;9.294;2022-09-09T12:12:45;98677.72;;;19.12;73.05
49877;BME280;35771;48.978;9.294;2022-09-09T12:15:25;98677.44;;;19.91;78.04
49877;BME280;35771;48.978;9.294;2022-09-09T12:17:56;98675.81;;;19.95;67.18
49877;BME280;35771;48.978;9.294;2022-09-09T12:20:28;98665.50;;;19.63;66.89
49877;BME280;35771;48.978;9.294;2022-09-09T12:26:20;98670.31;;;19.95;70.10
49877;BME280;35771;48.978;9.294;2022-09-09T12:28:55;98660.09;;;20.23;67.29
49877;BME280;35771;48.978;9.294;2022-09-09T12:31:32;98642.47;;;19.97;61.57
49877;BME280;35771;48.978;9.294;2022-09-09T12:34:11;98673.31;;;19.94;62.63
49877;BME280;35771;48.978;9.294;2022-09-09T12:36:40;98657.16;;;19.80;65.33
49877;BME280;35771;48.978;9.294;2022-09-09T12:39:10;98659.41;;;19.84;63.69
49877;BME280;35771;48.978;9.294;2022-09-09T12:41:38;98656.41;;;19.85;60.35
49877;BME280;35771;48.978;9.294;2022-09-09T12:44:05;98664.25;;;20.21;58.03
49877;BME280;35771;48.978;9.294;2022-09-09T12:46:36;98635.78;;;20.80;57.63
49877;BME280;35771;48.978;9.294;2022-09-09T12:49:04;98640.75;;;21.20;54.46
49877;BME280;35771;48.978;9.294;2022-09-09T12:51:32;98640.88;;;21.46;53.17
49877;BME280;35771;48.978;9.294;2022-09-09T12:53:59;98654.28;;;21.65;53.01
49877;BME280;35771;48.978;9.294;2022-09-09T12:56:31;98641.84;;;21.67;49.50
49877;BME280;35771;48.978;9.294;2022-09-09T12:59:00;98637.56;;;22.13;51.99
49877;BME280;35771;48.978;9.294;2022-09-09T13:01:30;98645.94;;;22.33;47.59
49877;BME280;35771;48.978;9.294;2022-09-09T13:03:57;98631.44;;;22.05;48.13
49877;BME280;35771;48.978;9.294;2022-09-09T13:06:25;98625.06;;;21.95;49.58
49877;BME280;35771;48.978;9.294;2022-09-09T13:08:53;98624.75;;;21.86;49.04
49877;BME280;35771;48.978;9.294;2022-09-09T13:11:24;98622.88;;;22.12;48.88
49877;BME280;35771;48.978;9.294;2022-09-09T13:13:55;98607.91;;;21.92;50.71
49877;BME280;35771;48.978;9.294;2022-09-09T13:16:27;98611.69;;;21.66;53.25
49877;BME280;35771;48.978;9.294;2022-09-09T13:18:57;98619.72;;;21.62;54.14
49877;BME280;35771;48.978;9.294;2022-09-09T13:21:32;98607.56;;;21.73;52.16
49877;BME280;35771;48.978;9.294;2022-09-09T13:24:29;98623.03;;;21.64;51.15
49877;BME280;35771;48.978;9.294;2022-09-09T13:26:57;98618.56;;;21.53;52.20